Time;durP1;ratioP1;P1;durP2;ratioP2;P2;SDS_P1;SDS_P2;PMS_P1;PMS_P2;Temp;Humidity;BMP_temperature;BMP_pressure;BME280_temperature;BME280_humidity;BME280_pressure;Samples;Min_cycle;Max_cycle;Signal;HPM_P1;HPM_P2
2023/01/29 00:01:18;;;;;;;13.40;8.20;;;;;;;-0.93;79.10;101447.05;83830;1254;3011556;-71
2023/01/29 00:03:55;;;;;;;10.90;8.10;;;;;;;-0.91;78.87;101446.23;82469;1258;3025124;-71
2023/01/29 00:06:29;;;;;;;11.00;7.60;;;;;;;-0.90;79.10;101433.58;82495;1258;3026348;-71
2023/01/29 00:09:00;;;;;;;10.20;7.20;;;;;;;-0.86;79.35;101429.41;83807;1259;3011579;-71
2023/01/29 00:11:32;;;;;;;9.70;7.60;;;;;;;-0.84;79.39;101426.72;82532;1256;3026557;-72
2023/01/29 00:14:04;;;;;;;9.40;8.00;;;;;;;-0.84;79.16;101421.25;83813;1256;3011587;-72
2023/01/29 00:16:40;;;;;;;10.30;7.50;;;;;;;-0.86;79.14;101420.34;82556;1254;3027017;-71
2023/01/29 00:19:12;;;;;;;11.60;7.90;;;;;;;-0.87;78.98;101418.09;82530;1258;3026570;-70
2023/01/29 00:21:43;;;;;;;8.80;6.50;;;;;;;-0.87;79.08;101417.73;83834;1255;3011611;-72
2023/01/29 00:24:21;;;;;;;9.10;6.20;;;;;;;-0.85;79.13;101422.59;82489;1256;3029787;-72
2023/01/29 00:26:58;;;;;;;7.40;6.30;;;;;;;-0.84;78.88;101414.23;82504;1256;3027215;-72
2023/01/29 00:29:31;;;;;;;7.20;6.50;;;;;;;-0.83;78.54;101402.94;82467;1255;3025525;-71
2023/01/29 00:32:02;;;;;;;7.00;6.00;;;;;;;-0.83;78.77;101404.84;83804;1256;3011437;-73
2023/01/29 00:34:37;;;;;;;7.90;6.40;;;;;;;-0.83;78.63;101411.51;82492;1255;3026455;-72
2023/01/29 00:37:10;;;;;;;6.60;5.90;;;;;;;-0.85;78.69;101410.61;82466;1258;3026304;-72
2023/01/29 00:39:42;;;;;;;7.40;6.10;;;;;;;-0.86;78.39;101399.08;83795;1256;3011485;-71
2023/01/29 00:45:08;;;;;;;6.20;4.90;;;;;;;-0.86;78.29;101400.63;82480;1255;3025188;-71
2023/01/29 00:47:43;;;;;;;6.10;5.00;;;;;;;-0.85;78.23;101389.00;82482;1255;3026187;-71
2023/01/29 00:50:16;;;;;;;5.60;5.00;;;;;;;-0.84;78.19;101388.00;83191;1260;3011511;-72
2023/01/29 00:52:50;;;;;;;6.40;5.10;;;;;;;-0.86;78.21;101385.75;83783;1256;3012741;-73
2023/01/29 00:55:23;;;;;;;7.80;5.70;;;;;;;-0.88;78.18;101385.00;82513;1255;3026010;-72
2023/01/29 00:57:54;;;;;;;7.00;5.40;;;;;;;-0.90;78.19;101378.10;83796;1255;3011557;-71
2023/01/29 01:00:28;;;;;;;7.40;5.40;;;;;;;-0.92;78.18;101377.70;82505;1256;3025513;-72
2023/01/29 01:03:08;;;;;;;6.00;4.60;;;;;;;-0.93;77.93;101377.49;83803;1255;3013579;-72
2023/01/29 01:05:49;;;;;;;8.70;5.50;;;;;;;-0.94;78.08;101372.52;82527;1255;3025672;-72
2023/01/29 01:11:12;;;;;;;8.30;5.20;;;;;;;-0.97;77.73;101350.86;82521;1255;3027127;-72
2023/01/29 01:13:48;;;;;;;8.30;5.80;;;;;;;-0.95;77.90;101345.93;83767;1256;3013138;-73
2023/01/29 01:16:20;;;;;;;7.80;5.80;;;;;;;-0.97;77.91;101342.98;82502;1255;3025856;-72
2023/01/29 01:18:51;;;;;;;7.60;5.80;;;;;;;-0.99;77.88;101339.68;83641;1257;3011529;-73
2023/01/29 01:21:23;;;;;;;7.50;5.70;;;;;;;-1.04;77.90;101337.34;82484;1255;3026208;-72
2023/01/29 01:23:54;;;;;;;7.40;5.40;;;;;;;-1.04;77.87;101337.67;83805;1255;3011238;-72
2023/01/29 01:26:27;;;;;;;7.80;5.70;;;;;;;-1.04;77.50;101335.62;82507;1255;3026075;-72
2023/01/29 01:29:00;;;;;;;7.50;5.40;;;;;;;-1.04;77.61;101329.27;83777;1255;3011356;-72
2023/01/29 01:31:32;;;;;;;8.60;5.90;;;;;;;-1.05;77.85;101333.71;82448;1259;3026007;-71
2023/01/29 01:34:03;;;;;;;7.60;6.10;;;;;;;-1.04;77.90;101336.12;83791;1255;3011600;-71
2023/01/29 01:36:35;;;;;;;10.20;6.80;;;;;;;-1.04;77.72;101338.52;82509;1255;3026297;-72
2023/01/29 01:39:06;;;;;;;8.60;6.40;;;;;;;-1.06;77.79;101339.17;83761;1256;3011799;-71
2023/01/29 01:41:50;;;;;;;7.70;6.10;;;;;;;-1.07;77.76;101334.16;82480;1256;3026031;-71
2023/01/29 01:44:57;;;;;;;8.20;5.70;;;;;;;-1.07;77.76;101330.23;82474;1256;3026362;-73
2023/01/29 01:47:37;;;;;;;7.80;6.00;;;;;;;-1.06;77.88;101334.04;82473;1255;3026391;-71
2023/01/29 01:50:13;;;;;;;7.60;6.80;;;;;;;-1.04;77.86;101338.71;82335;1258;3025736;-70
2023/01/29 01:52:51;;;;;;;8.30;6.20;;;;;;;-1.03;77.70;101346.10;82478;1256;3026149;-71
2023/01/29 01:55:31;;;;;;;8.30;6.60;;;;;;;-1.02;78.06;101345.25;82509;1255;3025757;-71
2023/01/29 01:58:09;;;;;;;9.60;6.70;;;;;;;-1.01;77.78;101343.05;82478;1255;3026113;-71
2023/01/29 02:00:42;;;;;;;8.10;6.80;;;;;;;-1.03;77.78;101340.44;82488;1255;3026059;-70
2023/01/29 02:11:45;;;;;;;10.50;6.30;;;;;;;-1.04;77.87;101341.77;82509;1255;3024820;-73
2023/01/29 02:14:16;;;;;;;10.20;7.20;;;;;;;-1.01;77.90;101338.42;83803;1255;3011540;-73
2023/01/29 02:16:48;;;;;;;12.90;8.30;;;;;;;-0.99;77.64;101341.56;82481;1258;3025366;-72
2023/01/29 02:19:30;;;;;;;12.40;8.10;;;;;;;-0.97;77.68;101343.48;83212;1255;3011505;-72
2023/01/29 02:22:24;;;;;;;12.10;9.20;;;;;;;-0.98;77.95;101340.90;82491;1255;3026133;-74
2023/01/29 02:25:17;;;;;;;14.60;9.60;;;;;;;-1.00;77.84;101338.30;82486;1255;3025641;-73
2023/01/29 02:28:26;;;;;;;13.20;9.60;;;;;;;-1.01;77.73;101330.89;82469;1254;3026002;-72
2023/01/29 02:31:04;;;;;;;11.80;7.80;;;;;;;-1.03;78.09;101324.16;82275;1256;3026387;-72
2023/01/29 02:33:44;;;;;;;10.00;8.40;;;;;;;-1.03;77.97;101323.83;82460;1256;3025322;-72
2023/01/29 02:36:34;;;;;;;11.90;8.60;;;;;;;-1.02;77.96;101315.98;82504;1258;3025649;-73
2023/01/29 02:39:15;;;;;;;12.90;8.80;;;;;;;-0.99;78.10;101312.45;82472;1258;3025630;-73
2023/01/29 02:41:56;;;;;;;11.60;8.90;;;;;;;-0.97;77.86;101305.83;82481;1256;3025835;-73
2023/01/29 02:44:33;;;;;;;13.70;8.80;;;;;;;-0.96;77.86;101309.10;82448;1258;3025909;-70
2023/01/29 02:47:16;;;;;;;13.60;10.30;;;;;;;-0.96;77.52;101306.70;82446;1254;3026045;-72
2023/01/29 02:49:49;;;;;;;12.80;9.40;;;;;;;-0.98;77.74;101306.48;82372;1259;3025259;-73
2023/01/29 02:52:22;;;;;;;13.90;8.90;;;;;;;-1.01;78.11;101305.54;83803;1255;3013167;-71
2023/01/29 02:55:01;;;;;;;12.20;8.50;;;;;;;-1.04;77.77;101307.88;82479;1255;3026332;-71
2023/01/29 02:57:38;;;;;;;11.20;8.00;;;;;;;-1.05;77.80;101307.17;82487;1255;3026463;-71
2023/01/29 03:00:15;;;;;;;11.60;8.30;;;;;;;-1.03;78.07;101302.09;82485;1255;3025507;-73
2023/01/29 03:02:56;;;;;;;11.60;8.90;;;;;;;-1.01;77.84;101296.82;82481;1259;3026067;-72
2023/01/29 03:05:31;;;;;;;11.70;8.00;;;;;;;-0.99;78.05;101294.80;82500;1255;3026008;-73
2023/01/29 03:08:09;;;;;;;11.10;8.80;;;;;;;-0.99;77.97;101293.95;83237;1256;3011400;-72
2023/01/29 03:10:45;;;;;;;11.80;8.60;;;;;;;-0.99;78.17;101295.66;82515;1263;3026642;-72
2023/01/29 03:13:20;;;;;;;11.80;7.60;;;;;;;-1.01;78.11;101294.42;82498;1259;3026205;-71
2023/01/29 03:16:00;;;;;;;11.20;8.30;;;;;;;-1.01;77.88;101293.39;82497;1255;3025983;-71
2023/01/29 03:18:35;;;;;;;10.40;7.60;;;;;;;-1.00;77.97;101291.35;82479;1258;3024879;-70
2023/01/29 03:32:37;;;;;;;12.60;8.20;;;;;;;-1.01;77.98;101286.72;82455;1255;3026560;-72
2023/01/29 03:35:11;;;;;;;10.30;7.00;;;;;;;-1.01;78.13;101286.20;83260;1258;3011845;-71
2023/01/29 03:37:47;;;;;;;9.50;6.80;;;;;;;-1.00;78.03;101284.33;83764;1257;3011404;-71
2023/01/29 03:40:20;;;;;;;9.40;7.50;;;;;;;-0.98;78.05;101283.02;82516;1258;3025920;-71
2023/01/29 03:43:03;;;;;;;11.50;7.60;;;;;;;-0.96;78.17;101289.91;83791;1255;3011617;-69
2023/01/29 03:45:42;;;;;;;12.00;8.60;;;;;;;-0.95;78.20;101283.26;82477;1259;3024817;-71
2023/01/29 03:48:21;;;;;;;11.60;8.50;;;;;;;-0.95;78.00;101284.80;82481;1256;3025776;-72
2023/01/29 03:50:57;;;;;;;12.10;8.60;;;;;;;-0.96;78.15;101278.42;82482;1258;3027078;-71
2023/01/29 03:53:36;;;;;;;10.80;7.40;;;;;;;-0.98;78.06;101278.23;82451;1256;3026133;-70
2023/01/29 03:56:12;;;;;;;10.20;7.00;;;;;;;-0.98;78.01;101280.79;82495;1259;3025481;-71
2023/01/29 03:58:45;;;;;;;9.60;7.80;;;;;;;-0.97;77.88;101275.86;82465;1255;3027110;-72
2023/01/29 04:01:18;;;;;;;9.90;7.60;;;;;;;-0.95;78.13;101270.91;83799;1256;3012802;-72
2023/01/29 04:03:53;;;;;;;10.50;7.70;;;;;;;-0.96;77.84;101266.95;82446;1258;3027279;-72
2023/01/29 04:06:29;;;;;;;10.70;7.90;;;;;;;-0.97;78.00;101260.77;82482;1259;3026322;-72
2023/01/29 04:09:05;;;;;;;10.30;7.80;;;;;;;-0.97;77.83;101266.59;82469;1259;3026912;-73
2023/01/29 04:11:43;;;;;;;11.60;8.50;;;;;;;-0.98;78.26;101262.29;82451;1256;3026548;-72
2023/01/29 04:14:17;;;;;;;11.00;7.50;;;;;;;-0.98;78.17;101261.61;82492;1256;3026355;-72
2023/01/29 04:16:53;;;;;;;10.40;7.10;;;;;;;-0.97;78.19;101259.05;83776;1258;3011451;-72
2023/01/29 04:19:26;;;;;;;10.00;7.60;;;;;;;-0.95;78.16;101259.09;82460;1261;3026783;-72
2023/01/29 04:22:03;;;;;;;13.40;8.30;;;;;;;-0.93;78.13;101256.57;83787;1258;3011398;-72
2023/01/29 04:24:36;;;;;;;11.70;8.20;;;;;;;-0.92;78.17;101253.70;82458;1254;3028021;-73
2023/01/29 04:27:28;;;;;;;11.50;8.10;;;;;;;-0.91;78.20;101246.01;83235;1256;3011603;-72
2023/01/29 04:30:19;;;;;;;13.30;9.60;;;;;;;-0.92;78.38;101247.20;82619;1259;3025473;-71
2023/01/29 04:33:08;;;;;;;11.30;7.90;;;;;;;-0.91;78.17;101247.20;82579;1257;3025752;-71
2023/01/29 04:35:54;;;;;;;10.40;7.50;;;;;;;-0.92;78.17;101243.42;82623;1256;3026160;-71
2023/01/29 04:38:37;;;;;;;10.90;7.20;;;;;;;-0.93;78.11;101242.54;82437;1262;3025998;-70
2023/01/29 04:41:14;;;;;;;10.60;7.60;;;;;;;-0.90;78.52;101245.17;82486;1255;3026095;-72
2023/01/29 04:43:51;;;;;;;10.20;7.50;;;;;;;-0.89;78.51;101244.52;82434;1262;3026990;-72
2023/01/29 04:46:27;;;;;;;12.20;8.10;;;;;;;-0.88;78.23;101245.74;82567;1258;3025660;-72
2023/01/29 04:49:14;;;;;;;9.50;7.50;;;;;;;-0.88;78.14;101241.28;83343;1256;3013325;-72
2023/01/29 04:51:50;;;;;;;11.10;8.40;;;;;;;-0.89;78.41;101239.72;82594;1259;3026933;-72
2023/01/29 04:54:31;;;;;;;10.70;7.20;;;;;;;-0.89;78.42;101235.27;82584;1257;3026072;-72
2023/01/29 04:57:11;;;;;;;11.50;7.00;;;;;;;-0.87;78.05;101233.25;82451;1260;3027944;-71
2023/01/29 04:59:47;;;;;;;8.90;6.80;;;;;;;-0.87;78.16;101226.24;82507;1258;3026396;-72
2023/01/29 05:02:20;;;;;;;12.80;8.10;;;;;;;-0.86;78.25;101226.61;83189;1256;3012778;-69
2023/01/29 05:04:53;;;;;;;12.70;8.40;;;;;;;-0.85;78.19;101225.77;83889;1256;3013160;-73
2023/01/29 05:07:27;;;;;;;10.80;7.80;;;;;;;-0.85;78.37;101224.91;82578;1259;3026205;-72
2023/01/29 05:09:58;;;;;;;12.30;8.10;;;;;;;-0.86;78.24;101227.29;83908;1256;3011590;-72
2023/01/29 05:12:30;;;;;;;10.40;7.80;;;;;;;-0.87;78.27;101229.32;82564;1257;3025373;-73
2023/01/29 05:15:07;;;;;;;10.10;7.40;;;;;;;-0.86;77.96;101228.48;83938;1257;3011550;-71
2023/01/29 05:17:41;;;;;;;11.30;8.20;;;;;;;-0.83;78.07;101233.02;82565;1258;3024907;-71
2023/01/29 05:20:15;;;;;;;12.10;8.10;;;;;;;-0.82;78.18;101225.67;83939;1255;3011484;-73
2023/01/29 05:22:48;;;;;;;12.60;8.90;;;;;;;-0.83;78.12;101231.64;82564;1259;3026583;-71
2023/01/29 05:25:26;;;;;;;11.30;8.80;;;;;;;-0.84;78.06;101226.98;83924;1259;3011919;-72
2023/01/29 05:28:05;;;;;;;11.40;9.20;;;;;;;-0.87;77.92;101220.23;82569;1257;3026441;-72
2023/01/29 05:30:41;;;;;;;14.00;9.30;;;;;;;-0.90;78.06;101220.69;82627;1266;3026593;-72
2023/01/29 05:33:17;;;;;;;13.10;8.00;;;;;;;-0.90;78.14;101219.65;82578;1255;3025797;-70
2023/01/29 05:35:50;;;;;;;10.70;7.70;;;;;;;-0.88;78.28;101217.48;82600;1255;3025790;-72
2023/01/29 05:38:22;;;;;;;12.40;8.30;;;;;;;-0.86;77.76;101205.70;83889;1256;3011571;-72
2023/01/29 05:41:00;;;;;;;11.40;8.20;;;;;;;-0.86;77.61;101200.92;82436;1262;3025392;-72
2023/01/29 05:43:39;;;;;;;13.00;9.20;;;;;;;-0.85;77.76;101197.85;83350;1256;3012824;-72
2023/01/29 05:46:13;;;;;;;11.70;8.90;;;;;;;-0.85;77.85;101195.80;82575;1258;3024548;-73
2023/01/29 05:48:44;;;;;;;14.80;9.60;;;;;;;-0.85;77.84;101198.70;83886;1259;3011662;-73
2023/01/29 05:51:19;;;;;;;15.20;9.80;;;;;;;-0.86;78.07;101194.58;82602;1257;3026242;-72
2023/01/29 05:53:55;;;;;;;15.30;9.50;;;;;;;-0.87;77.78;101190.42;83317;1257;3011791;-73
2023/01/29 05:56:28;;;;;;;12.10;8.30;;;;;;;-0.88;77.97;101189.72;83376;1259;3011613;-72
2023/01/29 05:58:59;;;;;;;12.30;8.40;;;;;;;-0.91;77.82;101189.33;83898;1255;3011534;-71
2023/01/29 06:01:31;;;;;;;12.60;8.30;;;;;;;-0.90;78.08;101193.27;82601;1256;3026218;-71
2023/01/29 06:04:02;;;;;;;14.20;9.50;;;;;;;-0.89;78.00;101195.86;83900;1256;3011320;-71
2023/01/29 06:06:35;;;;;;;12.90;9.00;;;;;;;-0.88;77.91;101200.86;82624;1256;3026113;-72
2023/01/29 06:09:06;;;;;;;16.00;9.80;;;;;;;-0.89;78.00;101200.16;83898;1259;3011552;-72
2023/01/29 06:11:38;;;;;;;14.50;10.30;;;;;;;-0.89;78.07;101198.28;82611;1259;3025341;-72
2023/01/29 06:14:10;;;;;;;14.30;10.50;;;;;;;-0.89;77.86;101201.70;83899;1266;3012764;-72
2023/01/29 06:16:42;;;;;;;17.80;11.00;;;;;;;-0.90;77.99;101202.72;82592;1256;3025639;-71
2023/01/29 06:19:13;;;;;;;16.00;9.60;;;;;;;-0.90;77.82;101202.02;83909;1256;3011841;-70
2023/01/29 06:21:46;;;;;;;13.40;8.90;;;;;;;-0.90;77.91;101204.92;82576;1259;3025702;-70
2023/01/29 06:24:17;;;;;;;13.50;9.60;;;;;;;-0.87;78.09;101209.11;83860;1259;3012286;-70
2023/01/29 06:26:49;;;;;;;15.90;10.10;;;;;;;-0.83;78.24;101203.55;82646;1259;3025297;-72
2023/01/29 06:29:20;;;;;;;14.50;9.40;;;;;;;-0.80;78.13;101202.05;83884;1259;3011505;-72
2023/01/29 06:31:52;;;;;;;14.30;10.70;;;;;;;-0.80;78.09;101196.41;82588;1259;3026447;-71
2023/01/29 06:34:23;;;;;;;15.30;10.50;;;;;;;-0.78;77.79;101191.15;83886;1259;3011559;-70
2023/01/29 06:36:55;;;;;;;14.20;10.30;;;;;;;-0.79;77.90;101192.15;82556;1260;3025618;-69
2023/01/29 06:39:26;;;;;;;14.30;10.40;;;;;;;-0.79;77.90;101192.98;83909;1256;3011535;-72
2023/01/29 06:42:01;;;;;;;13.50;9.70;;;;;;;-0.78;78.03;101196.63;82606;1257;3026110;-70
2023/01/29 06:44:39;;;;;;;13.60;10.40;;;;;;;-0.77;78.12;101199.90;83338;1256;3011578;-70
2023/01/29 06:47:11;;;;;;;17.10;10.60;;;;;;;-0.74;78.23;101195.14;82488;1257;3025527;-71
2023/01/29 06:49:44;;;;;;;17.00;10.50;;;;;;;-0.72;77.84;101192.30;83924;1254;3011525;-72
2023/01/29 06:52:18;;;;;;;17.30;10.70;;;;;;;-0.70;77.75;101197.13;82574;1256;3026274;-71
2023/01/29 06:54:49;;;;;;;18.90;12.00;;;;;;;-0.71;77.71;101196.77;83923;1259;3011603;-71
2023/01/29 06:57:23;;;;;;;16.50;11.20;;;;;;;-0.71;77.53;101200.02;82463;1256;3027685;-72
2023/01/29 06:59:55;;;;;;;16.00;11.30;;;;;;;-0.71;77.74;101202.08;83928;1259;3011608;-71
2023/01/29 07:02:31;;;;;;;14.10;9.60;;;;;;;-0.71;77.80;101202.77;82596;1257;3026454;-70
2023/01/29 07:05:06;;;;;;;16.10;10.40;;;;;;;-0.69;77.70;101198.69;82595;1259;3025501;-71
2023/01/29 07:07:41;;;;;;;16.60;10.50;;;;;;;-0.66;77.77;101193.10;83894;1259;3011344;-71
2023/01/29 07:10:13;;;;;;;17.40;10.60;;;;;;;-0.62;77.62;101183.09;82587;1256;3026433;-71
2023/01/29 07:12:44;;;;;;;18.10;11.30;;;;;;;-0.58;77.47;101174.44;83907;1257;3013431;-70
2023/01/29 07:15:19;;;;;;;16.80;11.20;;;;;;;-0.55;77.49;101174.14;82596;1255;3025714;-72
2023/01/29 07:17:59;;;;;;;16.80;11.20;;;;;;;-0.52;77.41;101177.13;83370;1260;3011339;-72
2023/01/29 07:20:31;;;;;;;18.50;12.40;;;;;;;-0.51;77.52;101181.23;82588;1256;3025902;-71
2023/01/29 07:23:02;;;;;;;17.00;10.90;;;;;;;-0.52;77.54;101181.23;83901;1259;3011526;-71
2023/01/29 07:25:34;;;;;;;17.80;10.80;;;;;;;-0.50;77.74;101176.63;82572;1254;3026054;-71
2023/01/29 07:28:05;;;;;;;18.30;10.50;;;;;;;-0.45;77.46;101185.46;83879;1254;3011587;-71
2023/01/29 07:30:40;;;;;;;15.40;11.30;;;;;;;-0.42;77.32;101193.77;82604;1259;3025808;-73
2023/01/29 07:33:13;;;;;;;17.50;10.60;;;;;;;-0.37;77.17;101204.15;83231;1256;3011279;-71
2023/01/29 07:35:45;;;;;;;15.80;10.80;;;;;;;-0.33;77.26;101204.41;83894;1260;3011426;-73
2023/01/29 07:38:19;;;;;;;15.50;11.20;;;;;;;-0.31;76.80;101204.96;82558;1259;3027184;-71
2023/01/29 07:40:53;;;;;;;15.80;10.70;;;;;;;-0.29;77.33;101204.98;83460;1262;3011585;-72
2023/01/29 07:43:25;;;;;;;16.30;10.10;;;;;;;-0.28;77.12;101207.07;82592;1260;3025963;-72
2023/01/29 07:45:56;;;;;;;16.30;10.20;;;;;;;-0.28;76.73;101209.48;83900;1263;3012895;-73
2023/01/29 07:48:33;;;;;;;16.80;10.50;;;;;;;-0.27;76.83;101206.91;82546;1259;3024914;-72
2023/01/29 07:51:07;;;;;;;15.70;9.50;;;;;;;-0.23;77.18;101204.44;83260;1256;3011552;-72
2023/01/29 07:53:38;;;;;;;12.60;9.50;;;;;;;-0.17;77.15;101196.31;83877;1257;3011533;-71
2023/01/29 07:56:11;;;;;;;15.50;10.40;;;;;;;-0.11;77.08;101185.45;82585;1259;3025794;-71
2023/01/29 07:58:42;;;;;;;16.60;10.40;;;;;;;-0.04;76.89;101185.06;83882;1269;3011434;-69
2023/01/29 08:01:14;;;;;;;15.10;10.90;;;;;;;0.01;76.45;101185.32;82591;1252;3025707;-72
2023/01/29 08:03:45;;;;;;;17.30;11.30;;;;;;;0.04;76.22;101183.48;83877;1259;3011591;-72
2023/01/29 08:06:19;;;;;;;16.70;10.90;;;;;;;0.03;76.11;101184.17;82600;1257;3025679;-71
2023/01/29 08:08:51;;;;;;;17.50;11.70;;;;;;;0.04;75.78;101178.86;83868;1267;3011511;-72
2023/01/29 08:11:23;;;;;;;16.50;11.90;;;;;;;0.03;75.83;101178.84;82599;1257;3025785;-71
2023/01/29 08:13:54;;;;;;;15.80;10.70;;;;;;;0.04;75.75;101171.48;83891;1256;3011608;-71
2023/01/29 08:16:26;;;;;;;14.50;9.80;;;;;;;0.04;75.82;101165.64;82596;1260;3026212;-71
2023/01/29 08:18:59;;;;;;;17.20;9.70;;;;;;;0.07;75.61;101161.75;83892;1260;3011285;-68
2023/01/29 08:21:33;;;;;;;12.40;10.00;;;;;;;0.09;75.91;101156.80;82605;1256;3025831;-71
2023/01/29 08:24:08;;;;;;;15.30;11.00;;;;;;;0.15;76.01;101163.27;83319;1256;3011570;-71
2023/01/29 08:26:42;;;;;;;14.50;9.60;;;;;;;0.19;75.87;101163.17;83933;1260;3011572;-72
2023/01/29 08:29:15;;;;;;;13.30;10.50;;;;;;;0.23;75.46;101161.52;82572;1254;3026332;-72
2023/01/29 08:31:45;;;;;;;14.80;11.00;;;;;;;0.25;75.44;101163.29;83910;1255;3011697;-72
2023/01/29 08:34:21;;;;;;;14.00;10.90;;;;;;;0.28;75.34;101159.70;82565;1260;3025532;-72
2023/01/29 08:36:54;;;;;;;12.50;9.30;;;;;;;0.30;75.31;101161.45;83364;1259;3012901;-71
2023/01/29 08:39:26;;;;;;;13.80;8.80;;;;;;;0.33;75.39;101160.81;83876;1258;3011319;-71
2023/01/29 08:42:00;;;;;;;15.70;9.30;;;;;;;0.36;75.06;101167.05;82578;1257;3025378;-71
2023/01/29 08:44:33;;;;;;;14.40;9.20;;;;;;;0.41;75.20;101163.36;83797;1254;3011344;-71
2023/01/29 08:47:08;;;;;;;15.40;9.90;;;;;;;0.43;74.78;101154.80;82567;1256;3025625;-72
2023/01/29 08:49:42;;;;;;;13.90;9.80;;;;;;;0.42;74.64;101157.02;82560;1259;3025675;-71
2023/01/29 08:52:13;;;;;;;17.20;10.20;;;;;;;0.43;74.96;101155.66;83937;1256;3011437;-71
2023/01/29 08:54:46;;;;;;;14.10;9.60;;;;;;;0.46;75.05;101155.55;82631;1263;3024596;-71
2023/01/29 08:57:20;;;;;;;13.90;9.80;;;;;;;0.49;75.12;101154.04;83899;1260;3011525;-70
2023/01/29 08:59:53;;;;;;;15.10;9.30;;;;;;;0.56;75.20;101151.06;82607;1259;3025828;-71
2023/01/29 09:02:27;;;;;;;11.80;8.40;;;;;;;0.61;74.52;101148.56;83860;1267;3011740;-72
2023/01/29 09:04:59;;;;;;;13.20;9.20;;;;;;;0.64;74.71;101153.23;82546;1268;3026021;-71
2023/01/29 09:07:30;;;;;;;15.60;9.40;;;;;;;0.67;74.84;101153.80;83878;1268;3013104;-71
2023/01/29 09:10:05;;;;;;;14.40;9.70;;;;;;;0.71;74.88;101149.56;82612;1260;3026228;-72
2023/01/29 09:12:39;;;;;;;13.90;9.40;;;;;;;0.73;74.78;101142.55;83176;1260;3012721;-72
2023/01/29 09:15:13;;;;;;;13.80;9.90;;;;;;;0.72;74.94;101133.44;83698;1259;3011644;-72
2023/01/29 09:17:45;;;;;;;13.90;9.40;;;;;;;0.72;75.18;101131.21;82421;1270;3024656;-73
2023/01/29 09:20:22;;;;;;;11.80;8.10;;;;;;;0.72;75.25;101126.91;83307;1259;3011765;-70
2023/01/29 09:22:55;;;;;;;13.90;9.40;;;;;;;0.74;75.22;101125.73;83900;1269;3013188;-71
2023/01/29 09:25:28;;;;;;;13.50;8.90;;;;;;;0.76;75.40;101127.50;82577;1268;3025574;-72
2023/01/29 09:28:00;;;;;;;13.80;9.60;;;;;;;0.81;75.47;101129.62;83765;1258;3011655;-71
2023/01/29 09:30:36;;;;;;;15.50;10.10;;;;;;;0.82;75.66;101122.40;82622;1259;3027623;-70
2023/01/29 09:33:09;;;;;;;15.50;10.00;;;;;;;0.84;75.61;101123.66;82496;1259;3026339;-71
2023/01/29 09:35:44;;;;;;;12.80;10.20;;;;;;;0.87;75.54;101122.83;83881;1263;3011285;-70
2023/01/29 09:38:17;;;;;;;15.30;10.20;;;;;;;0.86;75.65;101124.19;82573;1268;3026312;-70
2023/01/29 09:40:56;;;;;;;15.80;9.90;;;;;;;0.84;75.39;101115.40;83919;1268;3012095;-71
2023/01/29 09:43:34;;;;;;;16.60;10.40;;;;;;;0.83;75.92;101113.67;82569;1262;3026603;-71
2023/01/29 09:46:12;;;;;;;14.70;9.50;;;;;;;0.92;76.58;101106.23;82468;1262;3025802;-71
2023/01/29 09:48:58;;;;;;;15.30;10.90;;;;;;;1.03;76.79;101108.09;82554;1259;3025322;-71
2023/01/29 09:51:39;;;;;;;16.70;10.40;;;;;;;1.15;76.89;101103.77;82479;1259;3026425;-71
2023/01/29 09:54:21;;;;;;;15.40;10.30;;;;;;;1.23;76.87;101107.46;82481;1263;3025657;-70
2023/01/29 09:56:59;;;;;;;12.90;10.40;;;;;;;1.30;77.19;101110.66;82491;1264;3025855;-71
2023/01/29 09:59:35;;;;;;;16.10;10.40;;;;;;;1.37;77.12;101106.08;82488;1260;3026333;-71
2023/01/29 10:02:16;;;;;;;15.50;9.90;;;;;;;1.41;76.85;101099.08;83819;1269;3013027;-69
2023/01/29 10:05:09;;;;;;;12.80;9.30;;;;;;;1.41;76.61;101099.95;82480;1260;3025899;-70
2023/01/29 10:08:24;;;;;;;15.00;9.90;;;;;;;1.41;76.67;101097.54;82487;1260;3025926;-76
2023/01/29 10:11:34;;;;;;;13.00;9.90;;;;;;;1.38;76.45;101093.73;82533;1261;3026100;-71
2023/01/29 10:14:27;;;;;;;13.90;10.10;;;;;;;1.31;76.43;101087.80;82510;1265;3025528;-72
2023/01/29 10:17:19;;;;;;;14.60;9.50;;;;;;;1.27;76.58;101086.73;82508;1260;3027922;-70
2023/01/29 10:20:11;;;;;;;13.40;9.00;;;;;;;1.21;76.44;101081.17;82501;1267;3025587;-70
2023/01/29 10:22:59;;;;;;;13.10;8.80;;;;;;;1.18;76.66;101079.06;82503;1267;3025976;-69
2023/01/29 10:25:31;;;;;;;12.90;10.40;;;;;;;1.19;76.92;101073.41;82469;1270;3025792;-68
2023/01/29 10:28:02;;;;;;;17.50;10.20;;;;;;;1.19;76.82;101075.80;83824;1267;3011271;-71
2023/01/29 10:30:43;;;;;;;15.00;10.70;;;;;;;1.15;76.76;101070.09;82499;1260;3025443;-71
2023/01/29 10:33:20;;;;;;;14.70;10.80;;;;;;;1.15;77.08;101068.04;82498;1260;3025684;-71
2023/01/29 10:35:56;;;;;;;14.10;10.10;;;;;;;1.17;77.11;101067.53;82534;1259;3026096;-71
2023/01/29 10:38:38;;;;;;;15.80;10.10;;;;;;;1.16;77.19;101069.08;82514;1263;3026278;-71
2023/01/29 10:41:41;;;;;;;16.70;10.30;;;;;;;1.19;77.27;101068.25;82533;1262;3025689;-71
2023/01/29 10:44:29;;;;;;;16.60;10.00;;;;;;;1.21;77.45;101069.13;82480;1259;3026285;-71
2023/01/29 10:47:19;;;;;;;17.50;10.70;;;;;;;1.25;77.48;101065.40;82525;1259;3025964;-71
2023/01/29 10:50:13;;;;;;;18.40;11.30;;;;;;;1.24;77.26;101060.74;82521;1259;3026151;-72
2023/01/29 10:53:02;;;;;;;15.30;11.40;;;;;;;1.22;77.05;101062.09;82419;1269;3025619;-73
2023/01/29 10:55:46;;;;;;;;;;;;;;;1.17;77.09;101054.48;82548;1263;3026163;-72
2023/01/29 10:58:29;;;;;;;18.70;9.70;;;;;;;1.12;77.34;101051.14;82487;1268;3026383;-72
2023/01/29 11:01:01;;;;;;;15.20;11.30;;;;;;;1.14;77.41;101052.73;82526;1260;3027048;-73
2023/01/29 11:03:33;;;;;;;14.50;10.10;;;;;;;1.18;77.32;101053.98;83837;1268;3011505;-73
2023/01/29 11:06:12;;;;;;;19.90;11.80;;;;;;;1.23;77.66;101048.88;82505;1268;3025433;-72
2023/01/29 11:08:48;;;;;;;17.70;10.90;;;;;;;1.26;77.56;101044.09;82557;1263;3025776;-73
2023/01/29 11:11:26;;;;;;;16.40;12.00;;;;;;;1.30;77.37;101038.80;82505;1255;3025709;-71
2023/01/29 11:14:05;;;;;;;15.60;11.00;;;;;;;1.28;77.07;101041.38;82453;1259;3026168;-71
2023/01/29 11:16:44;;;;;;;16.90;12.10;;;;;;;1.26;77.13;101031.55;82532;1254;3024993;-72
2023/01/29 11:19:17;;;;;;;16.40;11.00;;;;;;;1.25;77.17;101024.84;82478;1265;3026188;-73
2023/01/29 11:21:57;;;;;;;15.80;10.80;;;;;;;1.24;77.06;101024.65;83274;1268;3011342;-73
2023/01/29 11:24:30;;;;;;;13.80;10.30;;;;;;;1.24;77.03;101020.88;82543;1259;3026362;-72
2023/01/29 11:27:12;;;;;;;15.70;11.00;;;;;;;1.25;77.00;101009.71;83732;1259;3011577;-73
2023/01/29 11:29:48;;;;;;;14.90;11.30;;;;;;;1.26;77.22;100999.41;82526;1258;3026006;-72
2023/01/29 11:32:29;;;;;;;17.70;11.90;;;;;;;1.29;77.39;100984.48;83286;1263;3012823;-73
2023/01/29 11:35:04;;;;;;;14.90;11.50;;;;;;;1.28;77.15;100979.83;82515;1260;3025823;-71
2023/01/29 11:37:39;;;;;;;17.10;11.00;;;;;;;1.26;77.24;100977.58;83227;1258;3011532;-72
2023/01/29 11:40:39;;;;;;;15.20;10.00;;;;;;;1.24;76.91;100971.73;82530;1255;3025855;-71
2023/01/29 11:43:30;;;;;;;14.90;10.60;;;;;;;1.21;77.16;100969.46;82504;1268;3026415;-69
2023/01/29 11:46:05;;;;;;;16.10;11.00;;;;;;;1.16;76.94;100966.14;82488;1270;3025075;-70
2023/01/29 11:48:43;;;;;;;15.00;11.30;;;;;;;1.10;77.22;100966.95;83832;1260;3011417;-70
2023/01/29 11:51:23;;;;;;;16.50;11.30;;;;;;;1.07;77.28;100965.70;82447;1261;3024644;-70
2023/01/29 11:53:58;;;;;;;15.80;11.20;;;;;;;1.00;77.46;100958.77;82468;1260;3026403;-70
2023/01/29 11:56:39;;;;;;;14.00;10.50;;;;;;;0.99;77.68;100955.83;83290;1259;3011539;-69
2023/01/29 11:59:47;;;;;;;14.50;10.90;;;;;;;1.00;77.83;100951.19;82558;1260;3025997;-71
2023/01/29 12:02:35;;;;;;;16.90;11.70;;;;;;;0.99;77.72;100940.53;82550;1254;3025726;-70
2023/01/29 12:05:18;;;;;;;16.10;11.40;;;;;;;0.98;77.80;100936.92;82551;1254;3025726;-71
2023/01/29 12:07:59;;;;;;;16.10;11.70;;;;;;;0.96;77.98;100936.39;82520;1264;3025639;-71
2023/01/29 12:10:44;;;;;;;18.00;12.30;;;;;;;0.96;78.02;100933.13;82432;1258;3025654;-72